createdAt,value
2017-06-18T00:00:08.313Z,61.70
2017-06-18T00:02:37.363Z,61.50
2017-06-18T00:05:05.613Z,61.90
2017-06-18T00:07:33.876Z,61.90
2017-06-18T00:10:02.148Z,61.80
2017-06-18T00:12:30.491Z,61.60
2017-06-18T00:14:58.850Z,61.60
2017-06-18T00:17:27.097Z,61.30
2017-06-18T00:19:55.394Z,61.50
2017-06-18T00:22:23.774Z,61.60
2017-06-18T00:24:52.117Z,61.60
2017-06-18T00:27:20.381Z,61.70
2017-06-18T00:29:49.389Z,61.50
2017-06-18T00:32:17.656Z,61.50
2017-06-18T00:34:45.912Z,61.70
2017-06-18T00:37:14.154Z,61.70
2017-06-18T00:39:42.430Z,61.40
2017-06-18T00:42:11.477Z,61.60
2017-06-18T00:44:39.747Z,61.60
2017-06-18T00:47:08.779Z,61.70
2017-06-18T00:49:37.054Z,61.60
2017-06-18T00:52:05.295Z,61.60
2017-06-18T00:54:33.542Z,61.60
2017-06-18T00:57:01.801Z,61.40
2017-06-18T00:59:30.035Z,61.30
2017-06-18T01:01:58.369Z,61.20
2017-06-18T01:04:26.633Z,61.40
2017-06-18T01:06:54.978Z,61.50
2017-06-18T01:09:23.229Z,61.80
2017-06-18T01:11:51.469Z,61.90
2017-06-18T01:14:19.849Z,61.80
2017-06-18T01:16:48.448Z,61.70
2017-06-18T01:19:17.580Z,61.70
2017-06-18T01:21:45.833Z,61.70
2017-06-18T01:24:14.104Z,61.60
2017-06-18T01:26:42.417Z,61.70
2017-06-18T01:29:10.666Z,61.60
2017-06-18T01:31:38.948Z,61.80
2017-06-18T01:34:07.212Z,62.00
2017-06-18T01:36:35.478Z,62.10
2017-06-18T01:39:04.485Z,62.40
2017-06-18T01:41:32.766Z,62.40
2017-06-18T01:44:01.486Z,62.90
2017-06-18T01:46:29.946Z,62.90
2017-06-18T01:48:58.231Z,62.90
2017-06-18T01:51:26.450Z,63.10
2017-06-18T01:53:55.488Z,63.30
2017-06-18T01:56:23.732Z,63.20
2017-06-18T01:58:52.064Z,63.30
2017-06-18T02:01:20.331Z,63.30
2017-06-18T02:03:48.597Z,63.00
2017-06-18T02:06:16.872Z,62.90
2017-06-18T02:08:45.213Z,63.10
2017-06-18T02:11:13.558Z,63.30
2017-06-18T02:13:41.902Z,63.10
2017-06-18T02:16:10.180Z,63.30
2017-06-18T02:18:38.440Z,63.60
2017-06-18T02:21:06.789Z,64.00
2017-06-18T02:23:35.805Z,64.10
2017-06-18T02:26:04.128Z,64.00
2017-06-18T02:28:32.471Z,64.00
2017-06-18T02:31:00.713Z,64.00
2017-06-18T02:33:29.030Z,64.00
2017-06-18T02:35:57.320Z,64.20
2017-06-18T02:38:25.561Z,64.20
2017-06-18T02:40:53.824Z,64.40
2017-06-18T02:43:22.131Z,64.60
2017-06-18T02:45:50.478Z,64.50
2017-06-18T02:48:18.733Z,64.50
2017-06-18T02:50:47.773Z,65.00
2017-06-18T02:53:16.073Z,64.60
2017-06-18T02:55:44.313Z,64.80
2017-06-18T02:58:12.586Z,64.90
2017-06-18T03:00:40.904Z,65.10
2017-06-18T03:03:09.150Z,65.30
2017-06-18T03:05:37.480Z,65.30
2017-06-18T03:08:05.717Z,65.50
2017-06-18T03:10:34.094Z,65.70
2017-06-18T03:13:02.461Z,65.80
2017-06-18T03:15:30.713Z,65.80
2017-06-18T03:17:58.962Z,66.00
2017-06-18T03:20:27.992Z,66.90
2017-06-18T03:23:01.956Z,66.10
2017-06-18T03:25:30.985Z,66.10
2017-06-18T03:27:59.284Z,66.20
2017-06-18T03:30:27.557Z,66.30
2017-06-18T03:32:55.932Z,66.30
2017-06-18T03:35:24.164Z,66.80
2017-06-18T03:37:52.509Z,66.70
2017-06-18T03:40:21.609Z,66.40
2017-06-18T03:42:49.888Z,66.90
2017-06-18T03:45:18.129Z,67.00
2017-06-18T03:47:46.377Z,67.40
2017-06-18T03:50:14.681Z,67.50
2017-06-18T03:52:42.989Z,68.40
2017-06-18T03:55:11.249Z,68.80
2017-06-18T03:57:39.617Z,69.30
2017-06-18T04:00:07.861Z,69.40
2017-06-18T04:02:36.123Z,69.60
2017-06-18T04:05:05.139Z,70.00
2017-06-18T04:07:33.397Z,70.00
2017-06-18T04:10:01.645Z,70.20
2017-06-18T04:12:29.909Z,70.40
2017-06-18T04:14:58.156Z,70.50
2017-06-18T04:17:26.529Z,70.70
2017-06-18T04:19:54.776Z,71.00
2017-06-18T04:22:23.111Z,71.00
2017-06-18T04:24:51.352Z,71.10
2017-06-18T04:27:19.595Z,70.90
2017-06-18T04:29:48.628Z,71.00
2017-06-18T04:32:16.868Z,70.90
2017-06-18T04:34:45.205Z,70.80
2017-06-18T04:37:13.559Z,70.50
2017-06-18T04:39:41.814Z,70.70
2017-06-18T04:42:10.073Z,70.60
2017-06-18T04:44:38.382Z,70.50
2017-06-18T04:47:06.632Z,70.40
2017-06-18T04:49:34.883Z,70.30
2017-06-18T04:52:03.140Z,70.20
2017-06-18T04:54:31.486Z,70.10
2017-06-18T04:56:59.738Z,70.20
2017-06-18T04:59:27.986Z,70.30
2017-06-18T05:01:56.353Z,70.20
2017-06-18T05:04:24.673Z,70.70
2017-06-18T05:06:52.965Z,70.20
2017-06-18T05:09:21.212Z,70.10
2017-06-18T05:11:49.475Z,69.90
2017-06-18T05:14:18.552Z,69.90
2017-06-18T05:16:46.907Z,69.90
2017-06-18T05:19:15.956Z,69.90
2017-06-18T05:21:44.261Z,69.90
2017-06-18T05:24:12.514Z,69.30
2017-06-18T05:26:40.895Z,69.10
2017-06-18T05:29:09.341Z,68.90
2017-06-18T05:31:37.664Z,68.80
2017-06-18T05:34:05.912Z,68.80
2017-06-18T05:36:34.161Z,68.50
2017-06-18T05:39:03.185Z,68.20
2017-06-18T05:41:31.529Z,68.00
2017-06-18T05:43:59.792Z,67.70
2017-06-18T05:46:28.052Z,67.50
2017-06-18T05:48:56.317Z,67.40
2017-06-18T05:51:25.602Z,66.90
2017-06-18T05:53:53.959Z,66.50
2017-06-18T05:56:22.273Z,66.10
2017-06-18T05:58:50.627Z,65.80
2017-06-18T06:01:18.929Z,65.40
2017-06-18T06:03:47.383Z,65.20
2017-06-18T06:06:15.745Z,64.90
2017-06-18T06:08:44.016Z,64.20
2017-06-18T06:11:12.328Z,63.70
2017-06-18T06:14:15.613Z,63.10
2017-06-18T06:16:43.861Z,59.30
2017-06-18T06:19:12.129Z,56.30
2017-06-18T06:21:41.151Z,53.70
2017-06-18T06:24:09.419Z,53.70
2017-06-18T06:26:37.747Z,52.30
2017-06-18T06:29:06.009Z,51.00
2017-06-18T06:31:34.339Z,51.00
2017-06-18T06:34:02.609Z,51.60
2017-06-18T06:36:31.613Z,51.30
2017-06-18T06:38:59.980Z,51.80
2017-06-18T06:41:28.203Z,50.20
2017-06-18T06:43:56.568Z,48.70
2017-06-18T06:46:25.125Z,47.60
2017-06-18T06:48:53.582Z,46.30
2017-06-18T06:51:21.810Z,46.10
2017-06-18T06:53:50.112Z,45.90
2017-06-18T06:56:18.399Z,46.40
2017-06-18T06:58:46.656Z,47.10
2017-06-18T07:01:15.009Z,45.90
2017-06-18T07:03:43.387Z,46.30
2017-06-18T07:06:11.629Z,46.40
2017-06-18T07:08:39.953Z,47.20
2017-06-18T07:11:08.208Z,47.60
2017-06-18T07:13:37.109Z,46.70
2017-06-18T07:16:05.364Z,45.50
2017-06-18T07:18:33.700Z,45.50
2017-06-18T07:21:01.928Z,45.50
2017-06-18T07:23:30.194Z,45.40
2017-06-18T07:25:58.432Z,45.20
2017-06-18T07:28:27.476Z,45.10
2017-06-18T07:30:55.734Z,45.40
2017-06-18T07:33:24.024Z,45.10
2017-06-18T07:35:52.266Z,45.00
2017-06-18T07:38:21.271Z,41.80
2017-06-18T07:40:49.544Z,41.70
2017-06-18T07:43:17.814Z,41.90
2017-06-18T07:45:46.802Z,42.70
2017-06-18T07:48:15.824Z,43.00
2017-06-18T07:50:44.080Z,43.00
2017-06-18T07:53:13.081Z,42.50
2017-06-18T07:55:41.323Z,42.50
2017-06-18T07:58:09.699Z,39.80
2017-06-18T08:00:38.717Z,42.20
2017-06-18T08:03:07.017Z,42.00
2017-06-18T08:05:35.393Z,42.20
2017-06-18T08:08:03.631Z,43.60
2017-06-18T08:10:32.649Z,41.80
2017-06-18T08:13:00.941Z,41.70
2017-06-18T08:15:29.205Z,42.50
2017-06-18T08:17:57.489Z,41.10
2017-06-18T08:20:25.733Z,41.10
2017-06-18T08:22:53.968Z,40.30
2017-06-18T08:25:22.217Z,39.00
2017-06-18T08:27:50.494Z,40.30
2017-06-18T08:30:18.769Z,38.80
2017-06-18T08:32:47.145Z,38.10
2017-06-18T08:35:15.419Z,38.50
2017-06-18T08:37:43.748Z,37.80
2017-06-18T08:40:12.108Z,36.70
2017-06-18T08:42:40.463Z,36.90
2017-06-18T08:45:08.746Z,36.70
2017-06-18T08:47:37.069Z,37.10
2017-06-18T08:50:06.073Z,36.40
2017-06-18T08:52:34.337Z,36.30
2017-06-18T08:55:03.331Z,36.00
2017-06-18T08:57:32.346Z,36.10
2017-06-18T09:00:00.589Z,36.10
2017-06-18T09:02:29.609Z,36.40
2017-06-18T09:04:57.901Z,36.30
2017-06-18T09:07:26.232Z,36.20
2017-06-18T09:09:55.250Z,36.00
2017-06-18T09:12:23.516Z,36.00
2017-06-18T09:14:52.785Z,35.90
2017-06-18T09:17:21.021Z,35.90
2017-06-18T09:19:49.264Z,36.90
2017-06-18T09:22:17.628Z,36.30
2017-06-18T09:24:46.663Z,36.10
2017-06-18T09:27:14.901Z,36.00
2017-06-18T09:29:44.043Z,35.30
2017-06-18T09:32:12.329Z,35.80
2017-06-18T09:34:40.597Z,34.60
2017-06-18T09:37:08.865Z,33.20
2017-06-18T09:39:37.129Z,32.70
2017-06-18T09:42:05.373Z,32.50
2017-06-18T09:44:34.380Z,32.30
2017-06-18T09:47:02.633Z,32.30
2017-06-18T09:49:32.272Z,30.40
2017-06-18T09:52:00.566Z,30.40
2017-06-18T09:54:28.829Z,30.50
2017-06-18T09:56:57.142Z,33.20
2017-06-18T09:59:25.403Z,34.30
2017-06-18T10:01:53.879Z,34.40
2017-06-18T10:04:22.118Z,35.40
2017-06-18T10:06:50.832Z,34.50
2017-06-18T10:09:19.073Z,34.30
2017-06-18T10:11:47.381Z,34.60
2017-06-18T10:14:15.649Z,34.40
2017-06-18T10:16:43.904Z,34.50
2017-06-18T10:19:12.225Z,34.60
2017-06-18T10:21:58.317Z,33.60
2017-06-18T10:24:26.550Z,32.00
2017-06-18T10:26:54.853Z,29.60
2017-06-18T10:29:23.081Z,30.00
2017-06-18T10:31:52.077Z,31.60
2017-06-18T10:34:21.156Z,29.80
2017-06-18T10:36:49.535Z,29.80
2017-06-18T10:39:17.789Z,28.80
2017-06-18T10:41:46.021Z,28.60
2017-06-18T10:44:14.284Z,27.50
2017-06-18T10:46:42.609Z,25.40
2017-06-18T10:49:10.861Z,24.10
2017-06-18T10:51:39.198Z,24.00
2017-06-18T10:54:07.523Z,23.60
2017-06-18T10:56:35.779Z,25.00
2017-06-18T10:59:04.021Z,26.60
2017-06-18T11:01:33.110Z,25.50
2017-06-18T11:04:02.175Z,25.40
2017-06-18T11:06:30.409Z,25.00
2017-06-18T11:08:58.644Z,25.40
2017-06-18T11:11:26.991Z,26.20
2017-06-18T11:13:55.231Z,27.50
2017-06-18T11:16:23.581Z,28.40
2017-06-18T11:18:52.604Z,29.40
2017-06-18T11:21:20.918Z,28.70
2017-06-18T11:23:49.161Z,30.00
2017-06-18T11:26:17.425Z,29.80
2017-06-18T11:28:45.674Z,28.80
2017-06-18T11:31:13.924Z,28.50
2017-06-18T11:33:42.156Z,28.50
2017-06-18T11:36:10.989Z,28.80
2017-06-18T11:38:39.229Z,29.20
2017-06-18T11:41:07.480Z,28.80
2017-06-18T11:43:35.788Z,27.70
2017-06-18T11:46:04.060Z,26.70
2017-06-18T11:48:32.396Z,26.20
2017-06-18T11:51:01.485Z,27.30
2017-06-18T11:53:29.769Z,26.80
2017-06-18T11:55:58.941Z,27.80
2017-06-18T11:58:27.173Z,27.80
2017-06-18T12:00:55.409Z,28.40
2017-06-18T12:03:24.526Z,30.40
2017-06-18T12:05:52.775Z,30.40
2017-06-18T12:08:21.043Z,30.40
2017-06-18T12:10:49.595Z,31.80
2017-06-18T12:13:17.957Z,32.30
2017-06-18T12:15:46.204Z,33.20
2017-06-18T12:18:15.240Z,35.00
2017-06-18T12:20:43.610Z,34.90
2017-06-18T12:23:11.883Z,36.10
2017-06-18T12:28:14.701Z,36.90
2017-06-18T12:30:42.941Z,36.10
2017-06-18T12:33:11.180Z,36.10
2017-06-18T12:35:40.198Z,36.40
2017-06-18T12:38:08.465Z,35.50
2017-06-18T12:40:36.815Z,35.40
2017-06-18T12:43:05.044Z,35.70
2017-06-18T12:45:33.313Z,36.00
2017-06-18T12:48:01.566Z,35.90
2017-06-18T12:50:30.738Z,37.40
2017-06-18T12:52:58.954Z,37.30
2017-06-18T12:55:27.213Z,36.40
2017-06-18T12:57:55.930Z,35.60
2017-06-18T13:00:24.246Z,35.40
2017-06-18T13:02:52.477Z,34.20
2017-06-18T13:05:20.754Z,33.10
2017-06-18T13:07:49.057Z,33.20
2017-06-18T13:10:17.306Z,32.30
2017-06-18T13:12:45.573Z,32.40
2017-06-18T13:15:13.860Z,32.40
2017-06-18T13:17:42.132Z,33.80
2017-06-18T13:20:10.354Z,33.90
2017-06-18T13:22:38.686Z,33.30
2017-06-18T13:25:06.927Z,34.80
2017-06-18T13:27:35.950Z,37.00
2017-06-18T13:30:04.222Z,37.00
2017-06-18T13:32:32.477Z,37.60
2017-06-18T13:35:00.728Z,38.40
2017-06-18T13:37:29.759Z,38.10
2017-06-18T13:40:03.609Z,38.10
2017-06-18T13:42:32.689Z,38.00
2017-06-18T13:45:00.954Z,38.40
2017-06-18T13:47:29.217Z,36.80
2017-06-18T13:49:57.512Z,36.40
2017-06-18T13:52:25.746Z,36.50
2017-06-18T13:54:54.052Z,36.50
2017-06-18T13:57:22.381Z,38.90
2017-06-18T13:59:51.397Z,40.40
2017-06-18T14:02:19.642Z,40.40
2017-06-18T14:04:47.900Z,40.70
2017-06-18T14:07:16.250Z,39.90
2017-06-18T14:09:44.501Z,40.00
2017-06-18T14:12:12.795Z,40.30
2017-06-18T14:14:41.125Z,39.90
2017-06-18T14:17:10.238Z,38.80
2017-06-18T14:19:38.509Z,38.80
2017-06-18T14:22:06.970Z,39.10
2017-06-18T14:24:35.220Z,39.00
2017-06-18T14:27:03.524Z,40.00
2017-06-18T14:29:31.797Z,39.70
2017-06-18T14:32:00.807Z,40.60
2017-06-18T14:34:29.822Z,40.30
2017-06-18T14:36:58.317Z,40.30
2017-06-18T14:39:26.593Z,41.00
2017-06-18T14:41:54.869Z,40.50
2017-06-18T14:44:23.102Z,40.90
2017-06-18T14:46:52.139Z,40.30
2017-06-18T14:49:20.459Z,40.30
2017-06-18T14:51:48.707Z,40.30
2017-06-18T14:54:16.938Z,40.70
2017-06-18T14:56:45.241Z,40.80
2017-06-18T14:59:13.548Z,39.70
2017-06-18T15:01:41.887Z,39.80
2017-06-18T15:04:10.164Z,40.20
2017-06-18T15:06:38.492Z,41.40
2017-06-18T15:09:06.734Z,40.60
2017-06-18T15:11:34.994Z,40.30
2017-06-18T15:14:03.252Z,40.60
2017-06-18T15:16:31.504Z,41.20
2017-06-18T15:19:00.526Z,41.20
2017-06-18T15:21:28.782Z,41.10
2017-06-18T15:23:57.145Z,41.20
2017-06-18T15:26:26.149Z,41.40
2017-06-18T15:28:54.453Z,41.30
2017-06-18T15:31:22.749Z,41.10
2017-06-18T15:33:51.002Z,41.10
2017-06-18T15:36:19.248Z,40.80
2017-06-18T15:38:47.557Z,40.90
2017-06-18T15:41:15.832Z,40.90
2017-06-18T15:43:44.168Z,41.70
2017-06-18T15:46:13.177Z,41.10
2017-06-18T15:48:41.415Z,41.10
2017-06-18T15:51:09.793Z,41.20
2017-06-18T15:53:38.031Z,41.40
2017-06-18T15:56:06.272Z,41.70
2017-06-18T15:58:34.572Z,40.90
2017-06-18T16:01:02.821Z,40.90
2017-06-18T16:03:31.130Z,40.40
2017-06-18T16:05:59.381Z,40.60
2017-06-18T16:08:27.633Z,40.00
2017-06-18T16:10:56.667Z,39.60
2017-06-18T16:13:24.943Z,39.60
2017-06-18T16:15:53.201Z,39.90
2017-06-18T16:18:21.498Z,39.90
2017-06-18T16:20:49.745Z,40.00
2017-06-18T16:23:18.090Z,39.70
2017-06-18T16:25:47.114Z,39.70
2017-06-18T16:28:15.373Z,39.70
2017-06-18T16:30:44.459Z,39.70
2017-06-18T16:33:12.681Z,39.20
2017-06-18T16:35:40.959Z,39.60
2017-06-18T16:38:09.214Z,39.30
2017-06-18T16:40:37.482Z,39.50
2017-06-18T16:43:06.610Z,39.50
2017-06-18T16:45:34.897Z,39.50
2017-06-18T16:48:03.169Z,40.00
2017-06-18T16:50:31.578Z,40.10
2017-06-18T16:52:59.848Z,40.20
2017-06-18T16:55:28.141Z,40.30
2017-06-18T16:57:57.249Z,40.10
2017-06-18T17:00:26.272Z,40.40
2017-06-18T17:02:54.513Z,40.40
2017-06-18T17:05:23.532Z,40.30
2017-06-18T17:07:51.824Z,40.30
2017-06-18T17:10:20.091Z,40.60
2017-06-18T17:12:48.321Z,40.80
2017-06-18T17:15:17.461Z,40.40
2017-06-18T17:17:45.701Z,40.40
2017-06-18T17:20:14.726Z,40.50
2017-06-18T17:22:43.013Z,40.50
2017-06-18T17:25:11.261Z,40.50
2017-06-18T17:27:39.510Z,40.60
2017-06-18T17:30:08.550Z,39.80
2017-06-18T17:32:36.785Z,40.20
2017-06-18T17:35:05.834Z,41.10
2017-06-18T17:37:34.065Z,41.10
2017-06-18T17:40:02.318Z,41.10
2017-06-18T17:42:30.545Z,41.30
2017-06-18T17:44:58.802Z,41.40
2017-06-18T17:47:27.051Z,41.90
2017-06-18T17:49:56.090Z,41.70
2017-06-18T17:52:24.868Z,41.70
2017-06-18T17:54:53.190Z,42.40
2017-06-18T17:57:21.545Z,41.90
2017-06-18T17:59:49.803Z,42.00
2017-06-18T18:02:18.063Z,42.30
2017-06-18T18:04:46.356Z,42.60
2017-06-18T18:07:14.687Z,41.50
2017-06-18T18:09:43.770Z,41.70
2017-06-18T18:12:12.794Z,41.80
2017-06-18T18:14:41.066Z,42.10
2017-06-18T18:17:09.314Z,42.30
2017-06-18T18:19:37.594Z,43.10
2017-06-18T18:22:05.859Z,43.00
2017-06-18T18:24:34.090Z,43.40
2017-06-18T18:27:02.324Z,44.10
2017-06-18T18:29:31.339Z,43.80
2017-06-18T18:31:59.597Z,43.80
2017-06-18T18:34:27.911Z,43.70
2017-06-18T18:36:56.145Z,43.60
2017-06-18T18:39:25.171Z,44.20
2017-06-18T18:41:53.428Z,44.20
2017-06-18T18:44:22.449Z,44.80
2017-06-18T18:46:50.680Z,44.80
2017-06-18T18:49:19.718Z,44.80
2017-06-18T18:51:47.977Z,44.70
2017-06-18T18:54:16.220Z,44.80
2017-06-18T18:56:45.254Z,44.40
2017-06-18T18:59:13.497Z,44.80
2017-06-18T19:01:42.517Z,45.60
2017-06-18T19:04:10.781Z,45.50
2017-06-18T19:06:39.037Z,45.90
2017-06-18T19:09:08.048Z,45.50
2017-06-18T19:11:36.319Z,45.40
2017-06-18T19:14:04.559Z,46.00
2017-06-18T19:16:32.824Z,46.40
2017-06-18T19:19:01.131Z,46.50
2017-06-18T19:21:30.171Z,47.30
2017-06-18T19:23:58.422Z,47.20
2017-06-18T19:26:26.684Z,47.30
2017-06-18T19:28:55.738Z,47.60
2017-06-18T19:31:24.009Z,47.50
2017-06-18T19:33:52.253Z,47.60
2017-06-18T19:36:20.549Z,47.60
2017-06-18T19:38:48.817Z,47.90
2017-06-18T19:41:17.184Z,47.80
2017-06-18T19:43:45.420Z,47.90
2017-06-18T19:46:14.886Z,48.20
2017-06-18T19:48:43.144Z,48.20
2017-06-18T19:51:11.385Z,47.90
2017-06-18T19:53:39.752Z,48.00
2017-06-18T19:56:08.757Z,49.00
2017-06-18T19:58:37.037Z,49.00
2017-06-18T20:01:05.345Z,49.10
2017-06-18T20:03:33.609Z,49.00
2017-06-18T20:06:01.856Z,49.10
2017-06-18T20:08:30.880Z,49.20
2017-06-18T20:10:59.207Z,49.20
2017-06-18T20:13:28.277Z,50.30
2017-06-18T20:15:56.525Z,49.60
2017-06-18T20:18:24.767Z,49.80
2017-06-18T20:20:53.801Z,49.60
2017-06-18T20:23:22.128Z,49.60
2017-06-18T20:25:51.143Z,50.00
2017-06-18T20:28:19.538Z,49.90
2017-06-18T20:30:47.784Z,50.00
2017-06-18T20:33:16.825Z,50.20
2017-06-18T20:35:45.080Z,50.20
2017-06-18T20:38:13.423Z,50.40
2017-06-18T20:40:42.552Z,50.50
2017-06-18T20:43:10.801Z,50.50
2017-06-18T20:45:39.860Z,50.40
2017-06-18T20:48:08.217Z,50.40
2017-06-18T20:50:36.454Z,50.70
2017-06-18T20:53:04.713Z,50.50
2017-06-18T20:55:33.717Z,50.90
2017-06-18T20:58:02.020Z,50.80
2017-06-18T21:00:30.265Z,51.30
2017-06-18T21:02:59.408Z,51.30
2017-06-18T21:05:27.646Z,51.20
2017-06-18T21:07:55.903Z,51.00
2017-06-18T21:10:24.921Z,51.20
2017-06-18T21:12:54.026Z,51.80
2017-06-18T21:15:22.273Z,51.20
2017-06-18T21:17:51.397Z,51.20
2017-06-18T21:20:19.777Z,51.10
2017-06-18T21:22:48.023Z,51.30
2017-06-18T21:25:17.030Z,51.30
2017-06-18T21:27:45.283Z,51.30
2017-06-18T21:30:14.332Z,51.70
2017-06-18T21:32:42.793Z,51.60
2017-06-18T21:35:11.075Z,51.50
2017-06-18T21:37:39.323Z,51.60
2017-06-18T21:40:07.581Z,51.50
2017-06-18T21:42:36.595Z,52.30
2017-06-18T21:45:04.851Z,51.70
2017-06-18T21:47:33.855Z,51.80
2017-06-18T21:50:02.866Z,51.90
2017-06-18T21:52:31.106Z,51.90
2017-06-18T21:54:59.353Z,52.00
2017-06-18T21:57:27.617Z,52.20
2017-06-18T21:59:55.910Z,52.30
2017-06-18T22:02:24.164Z,52.70
2017-06-18T22:04:52.392Z,52.20
2017-06-18T22:07:21.549Z,52.70
2017-06-18T22:09:49.781Z,52.70
2017-06-18T22:12:18.067Z,52.70
2017-06-18T22:14:46.305Z,53.00
2017-06-18T22:17:15.325Z,53.60
2017-06-18T22:19:43.568Z,53.50
2017-06-18T22:22:12.719Z,53.50
2017-06-18T22:24:40.948Z,53.40
2017-06-18T22:27:10.073Z,53.60
2017-06-18T22:29:38.325Z,53.60
2017-06-18T22:32:06.590Z,53.70
2017-06-18T22:34:35.597Z,54.10
2017-06-18T22:37:03.900Z,54.00
2017-06-18T22:39:32.129Z,54.10
2017-06-18T22:42:01.315Z,53.70
2017-06-18T22:44:29.537Z,54.00
2017-06-18T22:46:57.921Z,54.30
2017-06-18T22:49:26.220Z,54.10
2017-06-18T22:51:54.536Z,54.00
2017-06-18T22:54:23.669Z,54.10
2017-06-18T22:56:51.909Z,54.10
2017-06-18T22:59:20.159Z,54.00
2017-06-18T23:01:48.393Z,54.20
2017-06-18T23:04:16.651Z,53.90
2017-06-18T23:06:44.887Z,54.00
2017-06-18T23:09:13.137Z,54.50
2017-06-18T23:11:41.421Z,54.60
2017-06-18T23:14:09.669Z,54.00
2017-06-18T23:16:37.905Z,53.80
2017-06-18T23:19:06.936Z,53.80
2017-06-18T23:21:35.261Z,53.80
2017-06-18T23:24:03.502Z,53.70
2017-06-18T23:26:31.748Z,53.90
2017-06-18T23:29:00.089Z,53.80
2017-06-18T23:31:28.348Z,54.10
2017-06-18T23:33:56.674Z,54.10
2017-06-18T23:36:24.933Z,54.20
2017-06-18T23:38:53.993Z,54.90
2017-06-18T23:41:22.244Z,54.80
2017-06-18T23:43:50.515Z,54.70
2017-06-18T23:46:18.765Z,54.80
2017-06-18T23:48:47.043Z,54.70
2017-06-18T23:51:15.319Z,55.10
2017-06-18T23:53:43.630Z,55.30
2017-06-18T23:56:11.890Z,55.40
2017-06-18T23:58:40.146Z,55.70
